createdAt,value
2022-10-06T00:00:41.473Z,96.99
2022-10-06T00:01:41.508Z,96.89
2022-10-06T00:02:41.483Z,96.99
2022-10-06T00:03:41.474Z,96.69
2022-10-06T00:04:41.396Z,96.69
2022-10-06T00:05:41.370Z,96.89
2022-10-06T00:06:41.410Z,96.89
2022-10-06T00:07:41.385Z,97.09
2022-10-06T00:08:41.394Z,96.99
2022-10-06T00:09:41.315Z,96.99
2022-10-06T00:10:41.345Z,97.09
2022-10-06T00:11:41.349Z,97.30
2022-10-06T00:12:41.347Z,97.50
2022-10-06T00:13:41.315Z,97.40
2022-10-06T00:14:41.307Z,97.60
2022-10-06T00:15:41.270Z,97.60
2022-10-06T00:16:41.298Z,97.80
2022-10-06T00:17:41.308Z,97.60
2022-10-06T00:18:41.282Z,97.80
2022-10-06T00:19:41.227Z,98.11
2022-10-06T00:20:41.292Z,98.21
2022-10-06T00:21:41.214Z,98.21
2022-10-06T00:22:41.186Z,98.11
2022-10-06T00:23:41.187Z,98.01
2022-10-06T00:24:41.212Z,97.96
2022-10-06T00:25:41.157Z,98.05
2022-10-06T00:26:41.154Z,98.05
2022-10-06T00:27:41.263Z,98.05
2022-10-06T00:28:41.166Z,97.96
2022-10-06T00:29:41.156Z,97.96
2022-10-06T00:30:41.249Z,97.85
2022-10-06T00:31:41.095Z,97.96
2022-10-06T00:32:41.168Z,97.85
2022-10-06T00:33:41.110Z,97.75
2022-10-06T00:34:41.097Z,97.80
2022-10-06T00:35:41.077Z,97.80
2022-10-06T00:36:41.119Z,97.69
2022-10-06T00:37:41.016Z,97.69
2022-10-06T00:38:41.009Z,97.69
2022-10-06T00:39:41.030Z,97.69
2022-10-06T00:40:40.971Z,97.60
2022-10-06T00:41:40.995Z,97.69
2022-10-06T00:42:41.017Z,97.60
2022-10-06T00:43:41.005Z,97.69
2022-10-06T00:44:40.960Z,97.74
2022-10-06T00:45:40.988Z,97.64
2022-10-06T00:46:41.089Z,97.74
2022-10-06T00:47:40.929Z,97.74
2022-10-06T00:48:40.916Z,97.64
2022-10-06T00:49:40.912Z,97.64
2022-10-06T00:50:40.869Z,97.53
2022-10-06T00:51:40.938Z,97.44
2022-10-06T00:52:40.840Z,97.53
2022-10-06T00:53:40.868Z,97.44
2022-10-06T00:54:40.873Z,97.44
2022-10-06T00:55:40.822Z,97.48
2022-10-06T00:56:40.803Z,97.48
2022-10-06T00:57:40.812Z,97.28
2022-10-06T00:58:40.782Z,97.28
2022-10-06T00:59:40.784Z,97.48
2022-10-06T01:00:40.778Z,97.38
2022-10-06T01:01:40.866Z,97.28
2022-10-06T01:02:47.605Z,97.17
2022-10-06T01:03:40.777Z,97.28
2022-10-06T01:04:40.697Z,97.28
2022-10-06T01:05:56.565Z,97.28
2022-10-06T01:06:41.569Z,97.38
2022-10-06T01:07:41.170Z,97.22
2022-10-06T01:08:43.127Z,97.12
2022-10-06T01:09:40.737Z,97.12
2022-10-06T01:10:40.913Z,97.22
2022-10-06T01:11:40.753Z,97.12
2022-10-06T01:12:40.728Z,97.02
2022-10-06T01:13:40.770Z,97.02
2022-10-06T01:14:40.765Z,97.02
2022-10-06T01:15:40.749Z,97.22
2022-10-06T01:16:40.699Z,97.22
2022-10-06T01:17:42.722Z,97.22
2022-10-06T01:18:40.833Z,97.12
2022-10-06T01:19:40.908Z,97.37
2022-10-06T01:20:40.708Z,97.37
2022-10-06T01:21:41.345Z,97.37
2022-10-06T01:22:40.686Z,97.16
2022-10-06T01:23:40.660Z,97.37
2022-10-06T01:24:40.623Z,97.37
2022-10-06T01:25:40.640Z,97.37
2022-10-06T01:26:40.599Z,97.47
2022-10-06T01:27:40.579Z,97.47
2022-10-06T01:28:40.644Z,97.37
2022-10-06T01:29:40.591Z,97.37
2022-10-06T01:30:40.680Z,97.27
2022-10-06T01:31:40.524Z,97.37
2022-10-06T01:32:40.766Z,97.37
2022-10-06T01:33:40.668Z,97.47
2022-10-06T01:34:40.432Z,97.47
2022-10-06T01:35:40.643Z,97.27
2022-10-06T01:36:40.627Z,97.11
2022-10-06T01:37:40.803Z,97.31
2022-10-06T01:38:41.755Z,97.41
2022-10-06T01:39:40.891Z,97.21
2022-10-06T01:40:42.812Z,97.21
2022-10-06T01:41:40.408Z,97.31
2022-10-06T01:42:40.580Z,97.31
2022-10-06T01:43:40.627Z,97.31
2022-10-06T01:44:40.411Z,97.21
2022-10-06T01:45:40.390Z,97.21
2022-10-06T01:46:40.456Z,97.21
2022-10-06T01:47:40.427Z,97.41
2022-10-06T01:48:41.161Z,97.31
2022-10-06T01:49:40.429Z,97.31
2022-10-06T01:50:40.469Z,97.31
2022-10-06T01:51:40.387Z,97.31
2022-10-06T01:52:40.304Z,97.21
2022-10-06T01:53:40.274Z,97.16
2022-10-06T01:54:40.337Z,97.36
2022-10-06T01:55:40.319Z,97.36
2022-10-06T01:56:40.555Z,97.36
2022-10-06T01:57:42.574Z,97.46
2022-10-06T01:58:40.684Z,97.36
2022-10-06T01:59:40.248Z,97.36
2022-10-06T02:00:40.256Z,97.46
2022-10-06T02:01:40.426Z,97.36
2022-10-06T02:02:40.718Z,97.25
2022-10-06T02:03:41.114Z,97.25
2022-10-06T02:04:40.313Z,97.25
2022-10-06T02:05:40.165Z,97.16
2022-10-06T02:06:40.252Z,97.16
2022-10-06T02:07:40.094Z,97.25
2022-10-06T02:08:40.429Z,97.36
2022-10-06T02:09:45.026Z,97.25
2022-10-06T02:10:40.326Z,97.36
2022-10-06T02:11:40.266Z,97.25
2022-10-06T02:12:40.210Z,97.25
2022-10-06T02:13:40.206Z,96.95
2022-10-06T02:14:40.023Z,96.95
2022-10-06T02:15:40.142Z,96.95
2022-10-06T02:16:40.086Z,96.95
2022-10-06T02:17:40.144Z,97.05
2022-10-06T02:18:40.025Z,97.05
2022-10-06T02:19:40.919Z,97.00
2022-10-06T02:20:40.640Z,97.00
2022-10-06T02:21:41.333Z,97.00
2022-10-06T02:22:40.307Z,97.00
2022-10-06T02:23:40.076Z,96.89
2022-10-06T02:24:42.314Z,96.89
2022-10-06T02:25:40.131Z,97.00
2022-10-06T02:26:40.121Z,97.00
2022-10-06T02:27:40.191Z,96.89
2022-10-06T02:28:40.167Z,97.09
2022-10-06T02:29:52.867Z,97.00
2022-10-06T02:30:40.646Z,97.09
2022-10-06T02:31:42.448Z,97.00
2022-10-06T02:32:40.245Z,97.09
2022-10-06T02:33:40.142Z,97.09
2022-10-06T02:34:40.655Z,97.09
2022-10-06T02:35:40.347Z,97.09
2022-10-06T02:36:40.112Z,97.00
2022-10-06T02:37:40.472Z,97.00
2022-10-06T02:38:39.899Z,97.09
2022-10-06T02:39:40.226Z,97.09
2022-10-06T02:40:40.102Z,97.09
2022-10-06T02:41:39.949Z,97.09
2022-10-06T02:42:39.915Z,97.00
2022-10-06T02:43:39.866Z,97.00
2022-10-06T02:44:39.839Z,97.20
2022-10-06T02:45:40.004Z,97.14
2022-10-06T02:46:39.928Z,97.09
2022-10-06T02:47:40.227Z,97.20
2022-10-06T02:48:40.403Z,97.04
2022-10-06T02:49:40.208Z,96.94
2022-10-06T02:50:41.364Z,96.94
2022-10-06T02:51:39.799Z,97.04
2022-10-06T02:53:12.882Z,96.94
2022-10-06T02:54:13.868Z,96.94
2022-10-06T02:55:13.892Z,96.84
2022-10-06T02:56:13.865Z,96.84
2022-10-06T02:57:16.484Z,96.94
2022-10-06T02:58:13.863Z,96.94
2022-10-06T02:59:13.825Z,96.94
2022-10-06T03:00:13.821Z,97.04
2022-10-06T03:01:13.945Z,97.14
2022-10-06T03:02:13.859Z,97.04
2022-10-06T03:03:13.773Z,97.04
2022-10-06T03:04:13.786Z,96.94
2022-10-06T03:05:13.761Z,96.84
2022-10-06T03:07:21.607Z,96.94
2022-10-06T03:08:22.396Z,96.84
2022-10-06T03:09:22.441Z,96.73
2022-10-06T03:10:22.538Z,96.73
2022-10-06T03:11:24.302Z,96.73
2022-10-06T03:12:22.289Z,96.84
2022-10-06T03:13:22.147Z,96.84
2022-10-06T03:14:22.355Z,96.88
2022-10-06T03:15:22.248Z,96.98
2022-10-06T03:16:22.176Z,96.98
2022-10-06T03:17:22.088Z,96.88
2022-10-06T03:18:22.086Z,96.88
2022-10-06T03:19:22.061Z,96.88
2022-10-06T03:20:22.148Z,96.78
2022-10-06T03:21:22.230Z,96.78
2022-10-06T03:22:22.014Z,96.88
2022-10-06T03:23:22.149Z,96.78
2022-10-06T03:24:22.234Z,96.78
2022-10-06T03:25:22.053Z,96.68
2022-10-06T03:26:23.409Z,96.68
2022-10-06T03:27:29.698Z,96.68
2022-10-06T03:28:22.065Z,96.68
2022-10-06T03:29:22.325Z,96.68
2022-10-06T03:30:21.953Z,96.78
2022-10-06T03:31:22.149Z,96.78
2022-10-06T03:32:22.107Z,96.88
2022-10-06T03:33:21.982Z,96.88
2022-10-06T03:34:22.013Z,96.92
2022-10-06T03:35:22.067Z,96.98
2022-10-06T03:36:22.160Z,96.92
2022-10-06T03:37:22.779Z,97.03
2022-10-06T03:38:22.282Z,97.03
2022-10-06T03:39:21.879Z,97.03
2022-10-06T03:40:22.261Z,96.92
2022-10-06T03:41:21.958Z,97.03
2022-10-06T03:42:21.834Z,97.03
2022-10-06T03:43:25.040Z,96.92
2022-10-06T03:44:21.976Z,96.92
2022-10-06T03:45:21.966Z,97.03
2022-10-06T03:46:22.468Z,97.03
2022-10-06T03:47:25.133Z,97.13
2022-10-06T03:48:21.984Z,97.13
2022-10-06T03:49:21.940Z,97.03
2022-10-06T03:50:22.080Z,97.03
2022-10-06T03:51:22.016Z,97.03
2022-10-06T03:52:25.904Z,96.83
2022-10-06T03:53:21.991Z,96.92
2022-10-06T03:54:22.023Z,97.03
2022-10-06T03:55:22.017Z,97.03
2022-10-06T03:56:21.909Z,96.92
2022-10-06T03:57:22.911Z,97.03
2022-10-06T03:58:21.776Z,96.92
2022-10-06T03:59:23.149Z,96.83
2022-10-06T04:00:21.695Z,96.83
2022-10-06T04:01:25.919Z,96.92
2022-10-06T04:02:25.091Z,97.03
2022-10-06T04:03:21.621Z,97.03
2022-10-06T04:04:21.649Z,97.03
2022-10-06T04:05:22.219Z,96.92
2022-10-06T04:06:24.982Z,97.03
2022-10-06T04:07:22.017Z,96.92
2022-10-06T04:08:21.792Z,97.03
2022-10-06T04:09:22.876Z,97.13
2022-10-06T04:10:21.608Z,97.03
2022-10-06T04:11:22.126Z,97.03
2022-10-06T04:12:21.570Z,97.03
2022-10-06T04:13:21.729Z,96.92
2022-10-06T04:14:21.644Z,97.03
2022-10-06T04:15:22.011Z,97.13
2022-10-06T04:16:21.746Z,97.13
2022-10-06T04:17:21.500Z,97.03
2022-10-06T04:18:21.521Z,97.03
2022-10-06T04:19:22.624Z,97.03
2022-10-06T04:20:21.785Z,97.03
2022-10-06T04:21:21.727Z,97.03
2022-10-06T04:22:21.919Z,97.08
2022-10-06T04:24:35.606Z,97.03
2022-10-06T04:25:36.604Z,96.92
2022-10-06T04:26:36.577Z,96.92
2022-10-06T04:27:36.575Z,96.92
2022-10-06T04:29:33.510Z,96.83
2022-10-06T04:30:34.481Z,96.72
2022-10-06T04:31:34.579Z,96.72
2022-10-06T04:32:34.460Z,96.72
2022-10-06T04:34:39.335Z,96.62
2022-10-06T04:35:40.308Z,96.77
2022-10-06T04:36:40.288Z,96.72
2022-10-06T04:37:40.266Z,96.77
2022-10-06T04:38:43.944Z,96.67
2022-10-06T04:39:40.236Z,96.67
2022-10-06T04:40:40.263Z,96.67
2022-10-06T04:41:40.250Z,96.46
2022-10-06T04:42:40.229Z,96.67
2022-10-06T04:43:40.207Z,96.67
2022-10-06T04:44:40.195Z,96.67
2022-10-06T04:45:40.309Z,96.77
2022-10-06T04:46:44.808Z,96.67
2022-10-06T04:48:05.411Z,96.56
2022-10-06T04:48:40.160Z,96.56
2022-10-06T04:49:40.149Z,96.56
2022-10-06T04:50:40.151Z,96.56
2022-10-06T04:51:40.128Z,96.67
2022-10-06T04:52:54.352Z,96.77
2022-10-06T04:53:40.115Z,96.77
2022-10-06T04:54:40.115Z,96.77
2022-10-06T04:55:40.081Z,96.67
2022-10-06T04:56:40.100Z,96.67
2022-10-06T04:58:52.241Z,96.67
2022-10-06T04:59:53.213Z,96.67
2022-10-06T05:00:53.320Z,96.46
2022-10-06T05:01:53.256Z,96.46
2022-10-06T05:03:09.429Z,96.36
2022-10-06T05:03:53.285Z,96.46
2022-10-06T05:04:53.231Z,96.56
2022-10-06T05:05:53.289Z,96.46
2022-10-06T05:06:53.165Z,96.46
2022-10-06T05:07:53.256Z,96.56
2022-10-06T05:08:54.744Z,96.56
2022-10-06T05:09:53.189Z,96.56
2022-10-06T05:10:53.209Z,96.46
2022-10-06T05:11:53.556Z,96.46
2022-10-06T05:12:53.992Z,96.56
2022-10-06T05:13:53.123Z,96.46
2022-10-06T05:14:53.073Z,96.46
2022-10-06T05:15:53.225Z,96.36
2022-10-06T05:16:53.081Z,96.36
2022-10-06T05:17:53.038Z,96.26
2022-10-06T05:18:53.033Z,96.26
2022-10-06T05:19:52.996Z,96.26
2022-10-06T05:20:52.980Z,96.26
2022-10-06T05:21:53.002Z,96.26
2022-10-06T05:22:52.973Z,96.26
2022-10-06T05:23:52.952Z,96.15
2022-10-06T05:24:53.001Z,96.26
2022-10-06T05:25:52.933Z,96.30
2022-10-06T05:26:52.942Z,96.41
2022-10-06T05:27:52.956Z,96.41
2022-10-06T05:28:52.944Z,96.41
2022-10-06T05:29:52.903Z,96.41
2022-10-06T05:30:52.880Z,96.41
2022-10-06T05:31:52.921Z,96.41
2022-10-06T05:32:52.854Z,96.30
2022-10-06T05:33:52.876Z,96.30
2022-10-06T05:34:52.833Z,96.30
2022-10-06T05:35:52.842Z,96.30
2022-10-06T05:36:52.817Z,96.30
2022-10-06T05:37:52.787Z,96.20
2022-10-06T05:38:52.779Z,96.10
2022-10-06T05:39:52.792Z,96.30
2022-10-06T05:40:52.756Z,96.30
2022-10-06T05:41:52.827Z,96.30
2022-10-06T05:42:52.748Z,96.30
2022-10-06T05:43:52.745Z,96.30
2022-10-06T05:44:52.765Z,96.30
2022-10-06T05:45:52.782Z,96.41
2022-10-06T05:46:52.750Z,96.41
2022-10-06T05:47:52.705Z,96.41
2022-10-06T05:48:52.699Z,96.41
2022-10-06T05:49:52.696Z,96.41
2022-10-06T05:50:52.708Z,96.41
2022-10-06T05:51:52.690Z,96.30
2022-10-06T05:52:52.674Z,96.30
2022-10-06T05:53:52.700Z,96.41
2022-10-06T05:54:52.647Z,96.30
2022-10-06T05:55:52.667Z,96.30
2022-10-06T05:56:52.622Z,96.41
2022-10-06T05:57:52.601Z,96.51
2022-10-06T05:58:52.629Z,96.51
2022-10-06T05:59:52.594Z,96.41
2022-10-06T06:00:52.594Z,96.51
2022-10-06T06:01:52.606Z,96.41
2022-10-06T06:02:52.624Z,96.51
2022-10-06T06:03:52.594Z,96.41
2022-10-06T06:04:52.564Z,96.41
2022-10-06T06:05:52.517Z,96.41
2022-10-06T06:06:52.508Z,96.41
2022-10-06T06:07:52.498Z,96.51
2022-10-06T06:08:52.510Z,96.41
2022-10-06T06:09:52.475Z,96.51
2022-10-06T06:10:52.461Z,96.41
2022-10-06T06:11:52.439Z,96.30
2022-10-06T06:12:52.585Z,96.30
2022-10-06T06:13:52.460Z,96.30
2022-10-06T06:14:52.444Z,96.20
2022-10-06T06:15:52.407Z,96.20
2022-10-06T06:16:52.532Z,96.20
2022-10-06T06:17:52.451Z,96.30
2022-10-06T06:18:52.388Z,96.30
2022-10-06T06:19:52.393Z,96.30
2022-10-06T06:20:52.377Z,96.30
2022-10-06T06:21:52.341Z,96.20
2022-10-06T06:22:52.366Z,96.20
2022-10-06T06:23:52.365Z,96.10
2022-10-06T06:24:52.333Z,96.00
2022-10-06T06:26:07.950Z,95.89
2022-10-06T06:26:52.493Z,96.00
2022-10-06T06:27:52.336Z,96.00
2022-10-06T06:28:52.400Z,96.00
2022-10-06T06:29:52.381Z,95.95
2022-10-06T06:30:52.283Z,95.85
2022-10-06T06:31:52.252Z,95.85
2022-10-06T06:32:52.271Z,95.85
2022-10-06T06:33:52.275Z,95.85
2022-10-06T06:34:52.213Z,95.75
2022-10-06T06:35:52.285Z,95.64
2022-10-06T06:36:52.188Z,95.64
2022-10-06T06:37:52.200Z,95.64
2022-10-06T06:38:52.192Z,95.64
2022-10-06T06:39:52.173Z,95.75
2022-10-06T06:40:52.131Z,95.75
2022-10-06T06:41:52.147Z,95.75
2022-10-06T06:42:53.933Z,95.64
2022-10-06T06:43:52.225Z,95.64
2022-10-06T06:44:52.132Z,95.54
2022-10-06T06:45:52.146Z,95.54
2022-10-06T06:46:52.090Z,95.64
2022-10-06T06:47:52.090Z,95.64
2022-10-06T06:48:52.069Z,95.54
2022-10-06T06:49:52.076Z,95.44
2022-10-06T06:50:52.091Z,95.54
2022-10-06T06:51:52.062Z,95.54
2022-10-06T06:52:52.027Z,95.34
2022-10-06T06:53:52.038Z,95.44
2022-10-06T06:54:52.027Z,95.44
2022-10-06T06:55:52.056Z,95.44
2022-10-06T06:56:52.060Z,95.44
2022-10-06T06:57:51.992Z,95.29
2022-10-06T06:58:52.022Z,95.09
2022-10-06T06:59:51.995Z,94.89
2022-10-06T07:00:52.056Z,94.98
2022-10-06T07:01:52.049Z,95.09
2022-10-06T07:02:51.960Z,94.78
2022-10-06T07:03:57.695Z,94.78
2022-10-06T07:04:51.939Z,94.68
2022-10-06T07:05:51.899Z,94.68
2022-10-06T07:06:51.912Z,94.68
2022-10-06T07:07:51.941Z,94.68
2022-10-06T07:08:51.874Z,94.68
2022-10-06T07:09:51.884Z,94.48
2022-10-06T07:10:51.844Z,94.37
2022-10-06T07:11:51.831Z,94.17
2022-10-06T07:12:51.853Z,94.12
2022-10-06T07:13:51.823Z,94.12
2022-10-06T07:14:51.822Z,94.23
2022-10-06T07:15:51.900Z,93.82
2022-10-06T07:16:51.870Z,93.51
2022-10-06T07:17:51.818Z,93.82
2022-10-06T07:18:51.785Z,94.02
2022-10-06T07:19:51.761Z,93.92
2022-10-06T07:20:51.734Z,93.82
2022-10-06T07:21:51.739Z,93.92
2022-10-06T07:22:51.727Z,93.82
2022-10-06T07:23:51.791Z,93.92
2022-10-06T07:24:51.719Z,93.92
2022-10-06T07:25:51.763Z,93.31
2022-10-06T07:26:51.694Z,93.26
2022-10-06T07:27:51.681Z,93.16
2022-10-06T07:28:51.771Z,93.26
2022-10-06T07:29:52.274Z,93.06
2022-10-06T07:30:51.649Z,93.16
2022-10-06T07:31:51.681Z,93.06
2022-10-06T07:32:51.644Z,93.16
2022-10-06T07:33:51.631Z,92.65
2022-10-06T07:34:52.034Z,92.81
2022-10-06T07:35:51.627Z,92.81
2022-10-06T07:36:51.612Z,92.61
2022-10-06T07:37:51.584Z,93.12
2022-10-06T07:38:51.557Z,92.50
2022-10-06T07:39:51.569Z,92.30
2022-10-06T07:41:14.675Z,92.30
2022-10-06T07:41:51.659Z,92.30
2022-10-06T07:42:51.505Z,92.36
2022-10-06T07:43:51.569Z,91.65
2022-10-06T07:44:51.817Z,91.14
2022-10-06T07:45:51.523Z,91.65
2022-10-06T07:46:51.542Z,91.75
2022-10-06T07:47:51.474Z,92.05
2022-10-06T07:48:51.537Z,92.16
2022-10-06T07:49:51.494Z,92.22
2022-10-06T07:50:51.436Z,91.91
2022-10-06T07:51:51.462Z,92.32
2022-10-06T07:52:51.421Z,92.11
2022-10-06T07:53:51.469Z,91.40
2022-10-06T07:54:51.711Z,91.40
2022-10-06T07:55:51.414Z,91.20
2022-10-06T07:56:51.413Z,90.03
2022-10-06T07:57:51.384Z,89.94
2022-10-06T07:58:51.367Z,90.03
2022-10-06T07:59:51.381Z,90.34
2022-10-06T08:00:51.371Z,90.44
2022-10-06T08:01:51.435Z,89.99
2022-10-06T08:02:51.400Z,89.69
2022-10-06T08:03:51.354Z,88.77
2022-10-06T08:04:51.598Z,88.57
2022-10-06T08:05:51.296Z,88.77
2022-10-06T08:06:51.273Z,87.30
2022-10-06T08:07:51.320Z,86.69
2022-10-06T08:08:53.050Z,86.55
2022-10-06T08:09:51.295Z,86.25
2022-10-06T08:10:51.237Z,85.09
2022-10-06T08:11:51.256Z,84.99
2022-10-06T08:12:51.280Z,83.76
2022-10-06T08:13:51.271Z,84.03
2022-10-06T08:14:51.470Z,83.42
2022-10-06T08:15:51.309Z,82.81
2022-10-06T08:16:51.213Z,83.01
2022-10-06T08:17:51.205Z,83.08
2022-10-06T08:18:51.166Z,82.98
2022-10-06T08:19:51.158Z,82.26
2022-10-06T08:20:51.237Z,82.57
2022-10-06T08:21:51.196Z,82.64
2022-10-06T08:22:51.187Z,81.92
2022-10-06T08:23:51.114Z,81.52
2022-10-06T08:25:08.585Z,81.62
2022-10-06T08:25:51.084Z,81.58
2022-10-06T08:26:51.084Z,80.66
2022-10-06T08:27:53.544Z,79.55
2022-10-06T08:28:51.059Z,79.75
2022-10-06T08:29:51.055Z,79.85
2022-10-06T08:30:51.048Z,79.96
2022-10-06T08:31:51.134Z,79.55
2022-10-06T08:32:51.033Z,79.25
2022-10-06T08:33:51.376Z,78.91
2022-10-06T08:34:50.978Z,78.70
2022-10-06T08:35:51.036Z,79.41
2022-10-06T08:37:08.692Z,78.91
2022-10-06T08:37:50.967Z,78.80
2022-10-06T08:38:50.943Z,79.07
2022-10-06T08:39:51.031Z,79.47
2022-10-06T08:40:50.929Z,78.87
2022-10-06T08:41:50.916Z,77.75
2022-10-06T08:42:50.944Z,77.14
2022-10-06T08:43:50.916Z,77.04
2022-10-06T08:44:50.869Z,76.80
2022-10-06T08:45:50.980Z,76.90
2022-10-06T08:46:50.924Z,77.31
2022-10-06T08:47:50.886Z,76.80
2022-10-06T08:48:50.865Z,76.29
2022-10-06T08:49:50.846Z,76.60
2022-10-06T08:50:50.813Z,76.87
2022-10-06T08:51:50.860Z,76.77
2022-10-06T08:52:50.811Z,77.07
2022-10-06T08:53:50.785Z,77.58
2022-10-06T08:54:50.771Z,77.28
2022-10-06T08:55:50.766Z,76.43
2022-10-06T08:56:50.742Z,77.03
2022-10-06T08:57:50.750Z,76.63
2022-10-06T08:58:50.776Z,76.73
2022-10-06T08:59:50.780Z,75.52
2022-10-06T09:00:50.713Z,74.87
2022-10-06T09:01:50.818Z,74.87
2022-10-06T09:02:50.759Z,74.57
2022-10-06T09:03:50.683Z,74.57
2022-10-06T09:04:50.701Z,74.47
2022-10-06T09:05:50.708Z,75.18
2022-10-06T09:06:50.668Z,75.28
2022-10-06T09:07:50.663Z,74.77
2022-10-06T09:08:50.657Z,74.94
2022-10-06T09:09:50.620Z,74.43
2022-10-06T09:10:50.656Z,74.54
2022-10-06T09:11:50.613Z,73.93
2022-10-06T09:12:50.585Z,74.54
2022-10-06T09:13:50.571Z,74.70
2022-10-06T09:14:50.583Z,72.48
2022-10-06T09:15:50.660Z,71.77
2022-10-06T09:16:50.554Z,71.47
2022-10-06T09:17:50.548Z,71.67
2022-10-06T09:19:07.628Z,71.87
2022-10-06T09:19:50.528Z,71.87
2022-10-06T09:20:50.486Z,71.77
2022-10-06T09:21:50.530Z,70.05
2022-10-06T09:22:50.500Z,69.95
2022-10-06T09:23:50.514Z,70.86
2022-10-06T09:24:50.477Z,71.77
2022-10-06T09:25:50.433Z,71.17
2022-10-06T09:26:50.602Z,70.15
2022-10-06T09:27:50.427Z,69.55
2022-10-06T09:28:50.427Z,69.75
2022-10-06T09:29:50.430Z,70.05
2022-10-06T09:30:55.191Z,70.15
2022-10-06T09:31:50.808Z,69.75
2022-10-06T09:32:50.359Z,69.14
2022-10-06T09:33:50.411Z,68.74
2022-10-06T09:34:50.372Z,69.55
2022-10-06T09:35:50.364Z,71.06
2022-10-06T09:36:50.344Z,70.15
2022-10-06T09:37:50.328Z,69.85
2022-10-06T09:38:50.340Z,69.14
2022-10-06T09:39:50.410Z,69.92
2022-10-06T09:40:50.304Z,69.31
2022-10-06T09:41:50.295Z,70.53
2022-10-06T09:42:50.288Z,70.12
2022-10-06T09:43:50.260Z,70.73
2022-10-06T09:44:50.317Z,68.20
2022-10-06T09:45:50.268Z,69.71
2022-10-06T09:46:50.227Z,69.45
2022-10-06T09:47:50.228Z,70.12
2022-10-06T09:48:50.213Z,70.53
2022-10-06T09:49:50.288Z,69.11
2022-10-06T09:50:50.239Z,69.08
2022-10-06T09:51:50.328Z,68.87
2022-10-06T09:52:50.187Z,68.77
2022-10-06T09:53:50.191Z,69.04
2022-10-06T09:54:50.170Z,66.93
2022-10-06T09:55:50.187Z,66.52
2022-10-06T09:56:50.164Z,66.52
2022-10-06T09:57:50.150Z,66.32
2022-10-06T09:58:50.079Z,66.52
2022-10-06T09:59:50.089Z,66.08
2022-10-06T10:00:50.240Z,65.99
2022-10-06T10:01:50.094Z,65.88
2022-10-06T10:02:50.153Z,65.28
2022-10-06T10:04:08.497Z,65.18
2022-10-06T10:04:51.593Z,64.78
2022-10-06T10:05:50.121Z,65.95
2022-10-06T10:06:50.057Z,65.15
2022-10-06T10:07:50.008Z,64.54
2022-10-06T10:08:50.006Z,65.05
2022-10-06T10:09:50.059Z,64.84
2022-10-06T10:10:50.037Z,64.95
2022-10-06T10:11:50.173Z,64.75
2022-10-06T10:12:49.998Z,63.64
2022-10-06T10:13:49.964Z,64.24
2022-10-06T10:14:50.060Z,64.04
2022-10-06T10:15:50.018Z,65.55
2022-10-06T10:16:53.217Z,66.66
2022-10-06T10:17:49.887Z,65.52
2022-10-06T10:18:49.948Z,64.81
2022-10-06T10:19:49.879Z,64.11
2022-10-06T10:20:49.878Z,64.61
2022-10-06T10:21:49.854Z,64.28
2022-10-06T10:22:49.869Z,64.01
2022-10-06T10:23:49.844Z,65.49
2022-10-06T10:24:49.908Z,65.09
2022-10-06T10:25:49.867Z,62.66
2022-10-06T10:26:49.819Z,64.69
2022-10-06T10:27:49.793Z,64.48
2022-10-06T10:28:49.788Z,62.87
2022-10-06T10:29:49.797Z,62.94
2022-10-06T10:30:49.795Z,63.14
2022-10-06T10:31:49.785Z,63.14
2022-10-06T10:32:49.763Z,63.04
2022-10-06T10:33:59.443Z,62.21
2022-10-06T10:34:49.791Z,60.89
2022-10-06T10:35:49.757Z,62.01
2022-10-06T10:36:49.711Z,60.19
2022-10-06T10:37:49.704Z,60.29
2022-10-06T10:38:49.689Z,59.89
2022-10-06T10:39:49.694Z,60.32
2022-10-06T10:40:49.664Z,61.13
2022-10-06T10:41:49.666Z,61.73
2022-10-06T10:42:49.644Z,61.40
2022-10-06T10:43:49.673Z,61.00
2022-10-06T10:44:49.634Z,62.30
2022-10-06T10:45:49.637Z,61.60
2022-10-06T10:46:49.656Z,62.10
2022-10-06T10:47:49.580Z,61.27
2022-10-06T10:48:49.625Z,61.07
2022-10-06T10:49:49.618Z,61.57
2022-10-06T10:50:49.611Z,62.38
2022-10-06T10:51:49.608Z,59.66
2022-10-06T10:52:49.537Z,60.87
2022-10-06T10:53:49.568Z,60.57
2022-10-06T10:54:49.562Z,60.47
2022-10-06T10:55:49.563Z,59.86
2022-10-06T10:56:49.529Z,59.46
2022-10-06T10:57:49.537Z,59.26
2022-10-06T10:58:49.506Z,58.55
2022-10-06T10:59:49.550Z,59.56
2022-10-06T11:00:49.565Z,58.45
2022-10-06T11:01:49.515Z,59.76
2022-10-06T11:02:49.503Z,59.53
2022-10-06T11:03:49.423Z,58.62
2022-10-06T11:04:49.489Z,59.53
2022-10-06T11:05:49.433Z,60.53
2022-10-06T11:06:49.478Z,58.93
2022-10-06T11:07:49.420Z,58.83
2022-10-06T11:08:49.400Z,57.70
2022-10-06T11:09:49.452Z,57.19
2022-10-06T11:10:49.389Z,57.32
2022-10-06T11:11:52.214Z,57.42
2022-10-06T11:12:49.400Z,57.72
2022-10-06T11:13:49.423Z,57.42
2022-10-06T11:14:49.423Z,56.92
2022-10-06T11:15:49.320Z,57.52
2022-10-06T11:16:49.341Z,56.41
2022-10-06T11:17:49.287Z,57.72
2022-10-06T11:18:49.306Z,56.82
2022-10-06T11:19:49.305Z,56.92
2022-10-06T11:20:49.288Z,57.22
2022-10-06T11:21:49.356Z,55.91
2022-10-06T11:22:49.248Z,56.41
2022-10-06T11:23:49.234Z,56.95
2022-10-06T11:24:49.321Z,58.15
2022-10-06T11:25:49.241Z,57.75
2022-10-06T11:26:49.244Z,56.97
2022-10-06T11:27:49.265Z,57.78
2022-10-06T11:28:49.355Z,58.48
2022-10-06T11:29:49.199Z,56.90
2022-10-06T11:30:49.208Z,59.69
2022-10-06T11:31:49.191Z,59.08
2022-10-06T11:32:49.175Z,60.39
2022-10-06T11:33:49.159Z,60.16
2022-10-06T11:34:49.149Z,58.95
2022-10-06T11:35:49.129Z,58.25
2022-10-06T11:36:49.122Z,58.25
2022-10-06T11:37:49.154Z,58.02
2022-10-06T11:38:49.203Z,58.53
2022-10-06T11:39:49.131Z,56.62
2022-10-06T11:40:49.094Z,56.01
2022-10-06T11:41:49.099Z,54.98
2022-10-06T11:42:49.355Z,55.79
2022-10-06T11:43:49.033Z,54.58
2022-10-06T11:44:49.067Z,55.08
2022-10-06T11:45:49.179Z,55.81
2022-10-06T11:46:49.021Z,54.91
2022-10-06T11:47:49.041Z,55.61
2022-10-06T11:48:49.035Z,55.51
2022-10-06T11:49:48.999Z,56.21
2022-10-06T11:50:48.984Z,55.71
2022-10-06T11:51:48.967Z,55.41
2022-10-06T11:52:48.992Z,55.81
2022-10-06T11:53:48.953Z,57.32
2022-10-06T11:54:49.006Z,58.33
2022-10-06T11:55:49.758Z,58.22
2022-10-06T11:56:48.930Z,55.31
2022-10-06T11:57:48.898Z,56.11
2022-10-06T11:58:48.888Z,56.21
2022-10-06T11:59:48.927Z,53.90
2022-10-06T12:00:48.907Z,52.29
2022-10-06T12:01:48.894Z,53.40
2022-10-06T12:02:49.019Z,53.60
2022-10-06T12:03:48.827Z,54.23
2022-10-06T12:04:49.414Z,55.83
2022-10-06T12:05:56.171Z,56.41
2022-10-06T12:06:48.829Z,56.31
2022-10-06T12:07:48.802Z,57.24
2022-10-06T12:08:49.284Z,55.54
2022-10-06T12:09:52.439Z,54.53
2022-10-06T12:10:48.855Z,54.23
2022-10-06T12:11:48.750Z,54.63
2022-10-06T12:13:05.694Z,54.73
2022-10-06T12:14:44.596Z,54.33
2022-10-06T12:17:19.270Z,55.54
2022-10-06T12:18:14.385Z,55.43
2022-10-06T12:19:14.351Z,54.33
2022-10-06T12:20:14.359Z,54.13
2022-10-06T12:21:14.323Z,54.53
2022-10-06T12:22:14.329Z,55.23
2022-10-06T12:23:14.300Z,54.93
2022-10-06T12:25:14.248Z,56.62
2022-10-06T12:26:14.261Z,55.71
2022-10-06T12:27:14.330Z,54.20
2022-10-06T12:28:14.293Z,55.31
2022-10-06T12:29:14.244Z,56.31
2022-10-06T12:30:14.253Z,55.81
2022-10-06T12:31:18.073Z,54.00
2022-10-06T12:32:14.205Z,54.71
2022-10-06T12:33:14.303Z,54.40
2022-10-06T12:34:14.167Z,53.80
2022-10-06T12:35:14.201Z,55.11
2022-10-06T12:36:14.130Z,55.51
2022-10-06T12:37:14.142Z,54.91
2022-10-06T12:38:14.140Z,55.11
2022-10-06T12:39:14.107Z,54.80
2022-10-06T12:40:14.188Z,55.21
2022-10-06T12:41:14.114Z,54.71
2022-10-06T12:42:14.151Z,55.71
2022-10-06T12:43:14.141Z,53.60
2022-10-06T12:44:14.073Z,54.20
2022-10-06T12:45:14.057Z,55.00
2022-10-06T12:46:14.122Z,54.50
2022-10-06T12:47:14.028Z,54.20
2022-10-06T12:48:14.025Z,54.60
2022-10-06T12:49:14.008Z,54.71
2022-10-06T12:50:14.041Z,54.63
2022-10-06T12:51:14.051Z,54.83
2022-10-06T12:52:13.970Z,55.83
2022-10-06T12:53:13.978Z,56.44
2022-10-06T12:54:13.971Z,55.94
2022-10-06T12:55:13.965Z,55.63
2022-10-06T12:56:13.961Z,56.54
2022-10-06T12:57:13.967Z,57.55
2022-10-06T12:58:13.903Z,58.25
2022-10-06T12:59:13.926Z,56.41
2022-10-06T13:00:13.935Z,55.21
2022-10-06T13:01:13.958Z,54.50
2022-10-06T13:02:13.959Z,54.91